createdAt,value
2019-05-09T00:01:17.278Z,13.30
2019-05-09T00:03:47.039Z,13.30
2019-05-09T00:06:16.730Z,13.20
2019-05-09T00:08:46.482Z,13.20
2019-05-09T00:11:16.233Z,13.20
2019-05-09T00:13:45.938Z,13.20
2019-05-09T00:16:15.698Z,13.20
2019-05-09T00:18:45.399Z,13.20
2019-05-09T00:21:40.143Z,13.20
2019-05-09T00:24:09.926Z,13.20
2019-05-09T00:26:39.620Z,13.20
2019-05-09T00:29:14.647Z,13.10
2019-05-09T00:32:03.531Z,13.20
2019-05-09T00:34:44.168Z,13.10
2019-05-09T00:37:14.978Z,13.10
2019-05-09T00:39:44.679Z,13.10
2019-05-09T00:42:15.541Z,13.10
2019-05-09T00:44:47.881Z,13.10
2019-05-09T00:47:24.821Z,13.10
2019-05-09T00:49:54.514Z,13.10
2019-05-09T00:52:24.351Z,13.10
2019-05-09T00:54:54.071Z,13.10
2019-05-09T00:57:36.074Z,13.00
2019-05-09T01:00:14.671Z,13.00
2019-05-09T01:02:43.603Z,13.00
2019-05-09T01:05:13.664Z,13.00
2019-05-09T01:07:43.508Z,13.00
2019-05-09T01:10:14.170Z,13.00
2019-05-09T01:12:43.972Z,13.00
2019-05-09T01:15:14.138Z,13.00
2019-05-09T01:17:44.236Z,13.00
2019-05-09T01:20:14.842Z,13.00
2019-05-09T01:22:44.593Z,13.00
2019-05-09T01:25:14.462Z,13.00
2019-05-09T01:27:44.248Z,13.00
2019-05-09T01:30:16.329Z,13.00
2019-05-09T01:33:21.173Z,13.00
2019-05-09T01:35:50.950Z,13.00
2019-05-09T01:38:20.641Z,13.00
2019-05-09T01:40:53.270Z,13.00
2019-05-09T01:43:24.367Z,13.00
2019-05-09T01:45:54.262Z,13.00
2019-05-09T01:48:24.025Z,13.00
2019-05-09T01:50:53.857Z,13.00
2019-05-09T01:53:29.369Z,13.00
2019-05-09T01:55:59.258Z,13.00
2019-05-09T01:58:30.386Z,13.00
2019-05-09T02:01:01.102Z,13.00
2019-05-09T02:03:30.825Z,13.00
2019-05-09T02:06:00.558Z,13.00
2019-05-09T02:08:30.200Z,13.00
2019-05-09T02:10:59.865Z,12.90
2019-05-09T02:13:29.543Z,12.90
2019-05-09T02:16:30.665Z,12.90
2019-05-09T02:19:13.744Z,12.90
2019-05-09T02:21:43.870Z,12.90
2019-05-09T02:24:14.224Z,12.90
2019-05-09T02:26:44.103Z,12.90
2019-05-09T02:29:13.998Z,12.80
2019-05-09T02:31:44.753Z,12.80
2019-05-09T02:34:15.232Z,12.80
2019-05-09T02:36:45.091Z,12.70
2019-05-09T02:39:14.747Z,12.70
2019-05-09T02:41:59.453Z,12.60
2019-05-09T02:44:15.806Z,12.60
2019-05-09T02:46:58.799Z,12.50
2019-05-09T02:49:28.999Z,12.50
2019-05-09T02:51:59.265Z,12.50
2019-05-09T02:54:30.193Z,12.40
2019-05-09T02:56:59.914Z,12.40
2019-05-09T02:59:39.043Z,12.30
2019-05-09T03:02:30.909Z,12.30
2019-05-09T03:05:00.546Z,12.20
2019-05-09T03:07:48.850Z,12.20
2019-05-09T03:10:19.808Z,12.20
2019-05-09T03:12:50.416Z,12.10
2019-05-09T03:15:20.828Z,12.10
2019-05-09T03:17:50.733Z,12.00
2019-05-09T03:20:28.897Z,12.00
2019-05-09T03:22:58.437Z,12.00
2019-05-09T03:25:29.096Z,11.90
2019-05-09T03:28:05.327Z,11.90
2019-05-09T03:30:39.645Z,11.80
2019-05-09T03:33:10.445Z,11.80
2019-05-09T03:35:40.466Z,11.80
2019-05-09T03:38:10.126Z,11.80
2019-05-09T03:40:39.859Z,11.80
2019-05-09T03:43:09.563Z,11.70
2019-05-09T03:45:47.982Z,11.70
2019-05-09T03:48:23.404Z,11.60
2019-05-09T03:50:53.054Z,11.60
2019-05-09T03:53:22.730Z,11.60
2019-05-09T03:55:54.029Z,11.60
2019-05-09T03:58:23.962Z,11.60
2019-05-09T04:00:53.621Z,11.50
2019-05-09T04:03:23.278Z,11.50
2019-05-09T04:05:58.623Z,11.50
2019-05-09T04:08:24.304Z,11.40
2019-05-09T04:10:54.146Z,11.40
2019-05-09T04:13:31.269Z,11.40
2019-05-09T04:16:00.934Z,11.40
2019-05-09T04:18:30.581Z,11.40
2019-05-09T04:21:00.273Z,11.40
2019-05-09T04:23:29.946Z,11.30
2019-05-09T04:26:17.640Z,11.30
2019-05-09T04:28:47.464Z,11.30
2019-05-09T04:31:17.764Z,11.30
2019-05-09T04:33:47.654Z,11.30
2019-05-09T04:36:18.950Z,11.30
2019-05-09T04:38:48.720Z,11.40
2019-05-09T04:41:23.696Z,11.40
2019-05-09T04:43:49.714Z,11.50
2019-05-09T04:46:24.182Z,11.50
2019-05-09T04:48:54.070Z,11.60
2019-05-09T04:51:22.161Z,11.80
2019-05-09T04:53:51.806Z,12.00
2019-05-09T04:56:27.882Z,12.30
2019-05-09T04:58:58.788Z,12.60
2019-05-09T05:01:38.925Z,13.00
2019-05-09T05:04:09.221Z,13.30
2019-05-09T05:06:40.542Z,13.50
2019-05-09T05:09:10.425Z,13.70
2019-05-09T05:11:40.098Z,13.80
2019-05-09T05:14:12.514Z,13.90
2019-05-09T05:16:42.190Z,14.10
2019-05-09T05:19:11.853Z,14.40
2019-05-09T05:21:41.512Z,14.70
2019-05-09T05:24:18.471Z,15.00
2019-05-09T05:26:48.567Z,15.50
2019-05-09T05:29:18.561Z,15.90
2019-05-09T05:31:48.710Z,16.30
2019-05-09T05:34:30.169Z,16.70
2019-05-09T05:36:59.841Z,17.10
2019-05-09T05:39:29.484Z,17.50
2019-05-09T05:41:59.569Z,17.90
2019-05-09T05:44:29.213Z,18.20
2019-05-09T05:47:18.124Z,18.50
2019-05-09T05:49:48.765Z,18.80
2019-05-09T05:52:18.670Z,19.10
2019-05-09T05:54:48.438Z,19.30
2019-05-09T05:57:18.094Z,19.30
2019-05-09T05:59:48.300Z,19.30
2019-05-09T06:02:18.096Z,19.20
2019-05-09T06:04:48.646Z,19.10
2019-05-09T06:07:18.605Z,19.00
2019-05-09T06:09:48.459Z,19.10
2019-05-09T06:12:18.605Z,19.20
2019-05-09T06:14:48.346Z,19.40
2019-05-09T06:17:18.256Z,19.50
2019-05-09T06:19:48.338Z,19.70
2019-05-09T06:22:19.249Z,19.90
2019-05-09T06:24:48.971Z,20.00
2019-05-09T06:27:18.642Z,20.30
2019-05-09T06:29:48.293Z,20.50
2019-05-09T06:32:18.798Z,20.80
2019-05-09T06:34:49.722Z,21.10
2019-05-09T06:37:19.378Z,21.40
2019-05-09T06:39:49.064Z,21.90
2019-05-09T06:42:18.783Z,22.30
2019-05-09T06:45:17.972Z,22.70
2019-05-09T06:47:48.698Z,23.10
2019-05-09T06:50:19.312Z,23.60
2019-05-09T06:52:48.983Z,24.00
2019-05-09T06:55:18.646Z,24.40
2019-05-09T06:57:49.042Z,24.90
2019-05-09T07:00:37.932Z,25.30
2019-05-09T07:03:14.730Z,25.70
2019-05-09T07:05:58.345Z,26.20
2019-05-09T07:08:37.929Z,26.70
2019-05-09T07:11:07.604Z,27.10
2019-05-09T07:13:38.183Z,27.50
2019-05-09T07:16:08.931Z,27.80
2019-05-09T07:18:38.778Z,28.10
2019-05-09T07:21:08.492Z,28.50
2019-05-09T07:23:38.220Z,28.80
2019-05-09T07:26:17.691Z,29.10
2019-05-09T07:28:48.725Z,29.40
2019-05-09T07:31:37.897Z,29.70
2019-05-09T07:34:24.938Z,30.00
2019-05-09T07:36:54.678Z,30.20
2019-05-09T07:39:24.356Z,30.40
2019-05-09T07:41:54.006Z,30.60
2019-05-09T07:44:23.686Z,30.80
2019-05-09T07:46:58.067Z,31.00
2019-05-09T07:49:30.626Z,31.20
2019-05-09T07:52:06.124Z,31.40
2019-05-09T07:54:31.681Z,31.50
2019-05-09T07:57:01.366Z,31.50
2019-05-09T07:59:31.034Z,31.60
2019-05-09T08:02:00.708Z,31.60
2019-05-09T08:04:30.419Z,31.60
2019-05-09T08:07:00.169Z,31.70
2019-05-09T08:09:29.814Z,31.70
2019-05-09T08:11:59.618Z,31.60
2019-05-09T08:14:29.329Z,31.50
2019-05-09T08:17:00.169Z,31.40
2019-05-09T08:19:29.961Z,31.20
2019-05-09T08:21:59.684Z,30.90
2019-05-09T08:24:29.506Z,30.60
2019-05-09T08:26:59.323Z,30.30
2019-05-09T08:29:29.117Z,30.00
2019-05-09T08:31:58.843Z,29.80
2019-05-09T08:34:28.659Z,29.70
2019-05-09T08:36:58.586Z,29.80
2019-05-09T08:39:28.281Z,29.90
2019-05-09T08:41:59.238Z,30.00
2019-05-09T08:44:31.141Z,30.30
2019-05-09T08:47:00.776Z,30.50
2019-05-09T08:49:46.310Z,30.90
2019-05-09T08:52:16.579Z,31.20
2019-05-09T08:54:49.078Z,31.50
2019-05-09T08:57:18.801Z,31.70
2019-05-09T08:59:50.832Z,31.90
2019-05-09T09:02:22.396Z,32.00
2019-05-09T09:04:51.692Z,32.00
2019-05-09T09:07:21.506Z,32.00
2019-05-09T09:09:51.298Z,32.00
2019-05-09T09:12:30.436Z,32.00
2019-05-09T09:14:52.574Z,31.80
2019-05-09T09:17:22.468Z,31.50
2019-05-09T09:19:52.248Z,31.10
2019-05-09T09:22:22.050Z,30.50
2019-05-09T09:24:51.920Z,30.10
2019-05-09T09:27:21.869Z,29.90
2019-05-09T09:29:51.739Z,29.70
2019-05-09T09:32:21.675Z,29.70
2019-05-09T09:34:51.452Z,29.80
2019-05-09T09:37:21.197Z,30.00
2019-05-09T09:39:50.961Z,30.30
2019-05-09T09:42:21.905Z,30.50
2019-05-09T09:44:51.761Z,30.60
2019-05-09T09:47:23.460Z,30.40
2019-05-09T09:49:55.097Z,30.30
2019-05-09T09:52:24.793Z,30.30
2019-05-09T09:54:54.507Z,30.30
2019-05-09T09:57:24.349Z,30.40
2019-05-09T09:59:58.473Z,30.40
2019-05-09T10:02:34.931Z,30.50
2019-05-09T10:05:05.013Z,30.40
2019-05-09T10:07:34.853Z,30.40
2019-05-09T10:10:07.676Z,30.50
2019-05-09T10:12:43.611Z,30.70
2019-05-09T10:15:18.858Z,30.90
2019-05-09T10:17:54.530Z,30.90
2019-05-09T10:20:38.226Z,30.90
2019-05-09T10:23:15.005Z,30.70
2019-05-09T10:25:38.394Z,30.30
2019-05-09T10:28:09.505Z,30.00
2019-05-09T10:30:39.398Z,29.70
2019-05-09T10:33:09.431Z,29.50
2019-05-09T10:35:39.429Z,29.40
2019-05-09T10:38:09.320Z,29.50
2019-05-09T10:40:40.338Z,29.50
2019-05-09T10:43:33.399Z,29.60
2019-05-09T10:46:19.300Z,29.60
2019-05-09T10:48:58.615Z,29.50
2019-05-09T10:51:28.754Z,29.30
2019-05-09T10:53:58.983Z,29.10
2019-05-09T10:56:28.906Z,28.80
2019-05-09T10:58:58.807Z,28.50
2019-05-09T11:01:29.806Z,28.30
2019-05-09T11:03:59.838Z,28.00
2019-05-09T11:06:29.641Z,27.80
2019-05-09T11:08:59.526Z,27.50
2019-05-09T11:11:29.361Z,27.20
2019-05-09T11:13:59.304Z,26.90
2019-05-09T11:16:42.014Z,26.80
2019-05-09T11:19:00.716Z,26.70
2019-05-09T11:21:30.529Z,26.60
2019-05-09T11:24:00.413Z,26.50
2019-05-09T11:26:30.216Z,26.40
2019-05-09T11:29:00.010Z,26.20
2019-05-09T11:31:30.789Z,26.10
2019-05-09T11:34:00.507Z,26.00
2019-05-09T11:36:30.301Z,25.90
2019-05-09T11:39:00.892Z,25.80
2019-05-09T11:41:32.329Z,25.80
2019-05-09T11:44:02.065Z,25.70
2019-05-09T11:46:31.861Z,25.70
2019-05-09T11:49:01.701Z,25.60
2019-05-09T11:51:31.444Z,25.50
2019-05-09T11:54:01.145Z,25.50
2019-05-09T12:00:10.964Z,25.20
2019-05-09T12:02:40.679Z,25.10
2019-05-09T12:05:10.510Z,25.00
2019-05-09T12:07:40.238Z,24.90
2019-05-09T12:10:10.443Z,24.90
2019-05-09T12:12:40.226Z,24.80
2019-05-09T12:15:10.073Z,24.70
2019-05-09T12:17:53.323Z,24.60
2019-05-09T12:20:13.591Z,24.50
2019-05-09T12:22:43.150Z,24.40
2019-05-09T12:25:13.021Z,24.30
2019-05-09T12:27:42.806Z,24.30
2019-05-09T12:30:13.537Z,24.40
2019-05-09T12:32:43.313Z,24.40
2019-05-09T12:35:13.260Z,24.30
2019-05-09T12:37:43.045Z,24.30
2019-05-09T12:40:13.182Z,24.20
2019-05-09T12:42:42.870Z,24.20
2019-05-09T12:45:13.422Z,24.10
2019-05-09T12:47:43.291Z,24.10
2019-05-09T12:50:13.155Z,24.10
2019-05-09T12:52:42.876Z,24.10
2019-05-09T12:55:13.163Z,24.10
2019-05-09T12:57:43.003Z,24.10
2019-05-09T13:00:13.946Z,24.10
2019-05-09T13:02:43.675Z,24.10
2019-05-09T13:05:13.512Z,24.10
2019-05-09T13:07:43.422Z,24.10
2019-05-09T13:10:13.258Z,24.10
2019-05-09T13:12:42.975Z,24.20
2019-05-09T13:15:12.820Z,24.20
2019-05-09T13:17:44.266Z,24.20
2019-05-09T13:20:17.856Z,24.20
2019-05-09T13:22:48.774Z,24.10
2019-05-09T13:25:19.069Z,24.10
2019-05-09T13:27:52.464Z,24.20
2019-05-09T13:30:20.558Z,24.10
2019-05-09T13:32:50.371Z,24.10
2019-05-09T13:35:20.266Z,24.10
2019-05-09T13:37:50.044Z,24.10
2019-05-09T13:40:19.810Z,24.20
2019-05-09T13:42:49.708Z,24.20
2019-05-09T13:45:19.554Z,24.20
2019-05-09T13:47:49.674Z,24.20
2019-05-09T13:50:19.694Z,24.20
2019-05-09T13:52:49.394Z,24.20
2019-05-09T13:55:19.092Z,24.10
2019-05-09T13:57:48.941Z,24.10
2019-05-09T14:00:19.129Z,24.10
2019-05-09T14:03:08.295Z,24.00
2019-05-09T14:05:38.130Z,24.00
2019-05-09T14:08:11.422Z,23.90
2019-05-09T14:10:39.306Z,23.80
2019-05-09T14:13:13.347Z,23.80
2019-05-09T14:15:43.765Z,23.70
2019-05-09T14:18:11.940Z,23.60
2019-05-09T14:20:41.791Z,23.50
2019-05-09T14:23:11.816Z,23.50
2019-05-09T14:25:48.195Z,23.40
2019-05-09T14:28:14.442Z,23.40
2019-05-09T14:30:44.133Z,23.30
2019-05-09T14:33:13.911Z,23.20
2019-05-09T14:35:43.670Z,23.10
2019-05-09T14:38:13.364Z,23.10
2019-05-09T14:40:43.215Z,23.00
2019-05-09T14:43:13.053Z,22.90
2019-05-09T14:45:42.978Z,22.80
2019-05-09T14:48:12.754Z,22.80
2019-05-09T14:50:42.530Z,22.70
2019-05-09T14:53:12.306Z,22.60
2019-05-09T14:55:43.284Z,22.60
2019-05-09T14:58:13.237Z,22.50
2019-05-09T15:00:43.323Z,22.50
2019-05-09T15:03:13.086Z,22.50
2019-05-09T15:05:42.937Z,22.40
2019-05-09T15:08:12.698Z,22.30
2019-05-09T15:10:42.586Z,22.30
2019-05-09T15:13:12.422Z,22.20
2019-05-09T15:15:43.108Z,22.10
2019-05-09T15:18:13.622Z,22.10
2019-05-09T15:20:43.393Z,22.00
2019-05-09T15:23:13.102Z,21.90
2019-05-09T15:25:42.877Z,21.80
2019-05-09T15:28:12.591Z,21.70
2019-05-09T15:30:42.398Z,21.60
2019-05-09T15:33:12.114Z,21.60
2019-05-09T15:35:41.981Z,21.40
2019-05-09T15:38:11.762Z,21.40
2019-05-09T15:40:41.551Z,21.30
2019-05-09T15:43:11.277Z,21.30
2019-05-09T15:45:49.920Z,21.20
2019-05-09T15:48:19.633Z,21.10
2019-05-09T15:50:49.470Z,21.10
2019-05-09T15:53:19.241Z,21.10
2019-05-09T15:55:48.940Z,21.10
2019-05-09T15:58:19.067Z,21.10
2019-05-09T16:00:49.038Z,21.10
2019-05-09T16:03:18.822Z,21.10
2019-05-09T16:05:49.485Z,21.10
2019-05-09T16:08:19.334Z,21.20
2019-05-09T16:10:49.093Z,21.20
2019-05-09T16:13:18.789Z,21.20
2019-05-09T16:15:48.693Z,21.30
2019-05-09T16:18:19.737Z,21.40
2019-05-09T16:20:49.570Z,21.40
2019-05-09T16:23:19.354Z,21.50
2019-05-09T16:25:49.121Z,21.60
2019-05-09T16:28:18.890Z,21.60
2019-05-09T16:30:48.649Z,21.60
2019-05-09T16:33:18.454Z,21.70
2019-05-09T16:35:49.486Z,21.70
2019-05-09T16:38:19.748Z,21.70
2019-05-09T16:40:49.581Z,21.60
2019-05-09T16:43:19.425Z,21.60
2019-05-09T16:45:49.277Z,21.50
2019-05-09T16:48:19.066Z,21.40
2019-05-09T16:51:00.422Z,21.40
2019-05-09T16:53:20.303Z,21.30
2019-05-09T16:55:50.150Z,21.20
2019-05-09T16:58:20.014Z,21.20
2019-05-09T17:00:51.849Z,21.10
2019-05-09T17:03:21.717Z,21.00
2019-05-09T17:05:51.561Z,20.80
2019-05-09T17:08:24.422Z,20.70
2019-05-09T17:10:54.209Z,20.60
2019-05-09T17:13:24.015Z,20.50
2019-05-09T17:15:53.903Z,20.40
2019-05-09T17:18:23.731Z,20.30
2019-05-09T17:21:15.072Z,20.30
2019-05-09T17:23:33.278Z,20.20
2019-05-09T17:26:03.149Z,20.20
2019-05-09T17:28:32.917Z,20.10
2019-05-09T17:31:02.761Z,20.10
2019-05-09T17:33:32.542Z,20.00
2019-05-09T17:36:02.401Z,20.00
2019-05-09T17:38:32.299Z,20.00
2019-05-09T17:41:02.210Z,20.00
2019-05-09T17:43:32.229Z,20.00
2019-05-09T17:46:02.028Z,19.90
2019-05-09T17:48:31.835Z,20.00
2019-05-09T17:51:01.695Z,19.90
2019-05-09T17:53:33.869Z,19.90
2019-05-09T17:56:03.046Z,19.90
2019-05-09T17:58:33.567Z,19.90
2019-05-09T18:01:03.476Z,19.90
2019-05-09T18:03:33.310Z,20.00
2019-05-09T18:06:03.433Z,20.00
2019-05-09T18:08:33.203Z,20.00
2019-05-09T18:11:02.997Z,20.00
2019-05-09T18:13:33.114Z,20.00
2019-05-09T18:16:03.141Z,20.10
2019-05-09T18:18:33.197Z,20.10
2019-05-09T18:21:03.157Z,20.10
2019-05-09T18:23:32.970Z,20.10
2019-05-09T18:26:02.851Z,20.00
2019-05-09T18:28:32.684Z,20.00
2019-05-09T18:31:02.457Z,20.00
2019-05-09T18:33:38.037Z,19.90
2019-05-09T18:36:08.164Z,19.80
2019-05-09T18:38:38.749Z,19.80
2019-05-09T18:41:10.279Z,19.70
2019-05-09T18:43:40.154Z,19.60
2019-05-09T18:46:09.933Z,19.50
2019-05-09T18:48:39.707Z,19.40
2019-05-09T18:51:09.529Z,19.40
2019-05-09T18:53:39.277Z,19.30
2019-05-09T18:56:08.996Z,19.10
2019-05-09T18:58:38.845Z,19.10
2019-05-09T19:01:08.689Z,19.00
2019-05-09T19:03:38.390Z,18.90
2019-05-09T19:06:08.162Z,18.80
2019-05-09T19:08:37.865Z,18.70
2019-05-09T19:11:07.562Z,18.60
2019-05-09T19:13:37.306Z,18.50
2019-05-09T19:16:17.558Z,18.40
2019-05-09T19:19:05.108Z,18.40
2019-05-09T19:21:41.048Z,18.30
2019-05-09T19:24:10.816Z,18.20
2019-05-09T19:26:40.661Z,18.10
2019-05-09T19:29:10.720Z,18.00
2019-05-09T19:31:40.610Z,17.90
2019-05-09T19:34:11.380Z,17.90
2019-05-09T19:36:41.147Z,17.80
2019-05-09T19:39:11.423Z,17.70
2019-05-09T19:41:41.382Z,17.70
2019-05-09T19:44:11.241Z,17.60
2019-05-09T19:46:40.931Z,17.60
2019-05-09T19:49:10.697Z,17.60
2019-05-09T19:51:40.480Z,17.50
2019-05-09T19:54:10.267Z,17.50
2019-05-09T19:56:39.964Z,17.40
2019-05-09T19:59:12.003Z,17.40
2019-05-09T20:01:41.773Z,17.40
2019-05-09T20:04:11.558Z,17.30
2019-05-09T20:06:41.336Z,17.30
2019-05-09T20:09:20.850Z,17.30
2019-05-09T20:11:57.243Z,17.30
2019-05-09T20:14:36.415Z,17.20
2019-05-09T20:17:06.343Z,17.20
2019-05-09T20:19:36.131Z,17.20
2019-05-09T20:22:06.525Z,17.20
2019-05-09T20:24:36.317Z,17.20
2019-05-09T20:27:06.417Z,17.20
2019-05-09T20:29:36.378Z,17.20
2019-05-09T20:32:06.251Z,17.20
2019-05-09T20:34:36.029Z,17.10
2019-05-09T20:37:05.812Z,17.10
2019-05-09T20:39:35.694Z,17.10
2019-05-09T20:42:05.731Z,17.10
2019-05-09T20:44:35.759Z,17.10
2019-05-09T20:47:05.949Z,17.10
2019-05-09T20:49:35.849Z,17.00
2019-05-09T20:52:05.873Z,17.10
2019-05-09T20:54:35.841Z,17.00
2019-05-09T20:57:05.952Z,17.00
2019-05-09T20:59:35.982Z,17.00
2019-05-09T21:02:05.925Z,17.00
2019-05-09T21:04:35.896Z,17.00
2019-05-09T21:07:05.844Z,16.90
2019-05-09T21:09:35.751Z,16.90
2019-05-09T21:12:05.813Z,16.80
2019-05-09T21:14:35.764Z,16.80
2019-05-09T21:17:05.786Z,16.80
2019-05-09T21:19:35.753Z,16.80
2019-05-09T21:22:05.785Z,16.80
2019-05-09T21:24:35.929Z,16.70
2019-05-09T21:27:05.886Z,16.70
2019-05-09T21:29:35.783Z,16.70
2019-05-09T21:32:05.816Z,16.70
2019-05-09T21:34:35.577Z,16.60
2019-05-09T21:37:05.350Z,16.60
2019-05-09T21:39:36.132Z,16.60
2019-05-09T21:42:05.982Z,16.50
2019-05-09T21:44:35.679Z,16.50
2019-05-09T21:47:06.557Z,16.50
2019-05-09T21:49:36.353Z,16.50
2019-05-09T21:52:06.294Z,16.50
2019-05-09T21:54:35.997Z,16.40
2019-05-09T21:57:05.857Z,16.40
2019-05-09T21:59:35.619Z,16.40
2019-05-09T22:02:05.498Z,16.40
2019-05-09T22:04:35.178Z,16.40
2019-05-09T22:07:05.052Z,16.30
2019-05-09T22:09:34.940Z,16.30
2019-05-09T22:12:05.326Z,16.30
2019-05-09T22:14:35.106Z,16.20
2019-05-09T22:17:11.766Z,16.20
2019-05-09T22:19:41.530Z,16.20
2019-05-09T22:22:11.317Z,16.20
2019-05-09T22:24:41.076Z,16.10
2019-05-09T22:27:10.877Z,16.10
2019-05-09T22:29:40.646Z,16.10
2019-05-09T22:32:10.434Z,16.10
2019-05-09T22:34:40.126Z,16.10
2019-05-09T22:37:09.994Z,16.00
2019-05-09T22:39:39.766Z,16.00
2019-05-09T22:42:09.540Z,16.00
2019-05-09T22:44:39.231Z,16.00
2019-05-09T22:47:09.482Z,15.90
2019-05-09T22:49:39.737Z,15.90
2019-05-09T22:52:09.438Z,15.90
2019-05-09T22:54:39.195Z,15.90
2019-05-09T22:57:08.975Z,15.90
2019-05-09T22:59:38.681Z,15.80
2019-05-09T23:02:08.455Z,15.80
2019-05-09T23:04:38.223Z,15.80
2019-05-09T23:07:08.087Z,15.80
2019-05-09T23:09:37.785Z,15.80
2019-05-09T23:12:07.638Z,15.70
2019-05-09T23:14:37.325Z,15.70
2019-05-09T23:17:07.989Z,15.70
2019-05-09T23:19:37.753Z,15.70
2019-05-09T23:22:08.187Z,15.70
2019-05-09T23:24:38.462Z,15.70
2019-05-09T23:27:10.542Z,15.70
2019-05-09T23:29:59.442Z,15.70
2019-05-09T23:32:38.979Z,15.60
2019-05-09T23:35:09.145Z,15.60
2019-05-09T23:37:38.871Z,15.60
2019-05-09T23:40:09.245Z,15.60
2019-05-09T23:42:39.028Z,15.60
2019-05-09T23:45:08.892Z,15.50
2019-05-09T23:47:38.617Z,15.50
2019-05-09T23:50:08.517Z,15.50
2019-05-09T23:52:38.329Z,15.50
2019-05-09T23:55:26.150Z,15.50
2019-05-09T23:58:13.578Z,15.40
